North Pickens Airport (FAA LID: 3M8) is a county-owned public-use airport in Pickens County, Alabama, United States.
UNICOM: None
CTAF: 122.9 MHz
ATIS: None
RADAR SERVICE: Approach / Departure
COLUMBUS APPROACH/DEPARTURE: 135.6 MHz APCH/P DEP/P
Runway 1/19
Dimensions: 5144 x 80 ft. / 1568 x 24 m
Surface: asphalt, in good condition
Runway edge lights: medium intensity
Nearest
TUSCALOOSA, AL
Metar
KTCL 250653Z AUTO 00000KT 10SM CLR 22/22 A2996 RMK AO2 SLP141 T02220217

06:53 UTC

Wind: 0° 0kt

Visibility: 10 SM

Sky:

Temp: 22 deg C / 71.6 deg F

Dewpoint: 22 deg C / 71.6 deg F

Pressure: 29.96 inHg

TAF
KTCL 250520Z 2506/2606 00000KT P6SM BKN200 FM251400 08006KT P6SM SCT050 SCT120 FM260000 00000KT P6SM BKN200